sensor_id;sensor_type;location;lat;lon;timestamp;P1;durP1;ratioP1;P2;durP2;ratioP2
80229;SDS011;69540;42.136;24.742;2023-05-31T00:00:01;2.08;;;1.98;;
80229;SDS011;69540;42.136;24.742;2023-05-31T00:02:27;2.30;;;2.20;;
80229;SDS011;69540;42.136;24.742;2023-05-31T00:04:52;2.13;;;2.03;;
80229;SDS011;69540;42.136;24.742;2023-05-31T00:07:18;1.90;;;1.80;;
80229;SDS011;69540;42.136;24.742;2023-05-31T00:09:44;1.50;;;1.45;;
80229;SDS011;69540;42.136;24.742;2023-05-31T00:12:09;2.08;;;1.98;;
80229;SDS011;69540;42.136;24.742;2023-05-31T00:14:35;2.00;;;1.90;;
80229;SDS011;69540;42.136;24.742;2023-05-31T00:17:01;2.25;;;2.00;;
80229;SDS011;69540;42.136;24.742;2023-05-31T00:19:26;2.00;;;1.90;;
80229;SDS011;69540;42.136;24.742;2023-05-31T00:21:52;2.28;;;2.08;;
80229;SDS011;69540;42.136;24.742;2023-05-31T00:24:17;2.10;;;1.95;;
80229;SDS011;69540;42.136;24.742;2023-05-31T00:26:43;2.20;;;2.10;;
80229;SDS011;69540;42.136;24.742;2023-05-31T00:29:09;1.85;;;1.75;;
80229;SDS011;69540;42.136;24.742;2023-05-31T00:31:34;1.90;;;1.80;;
80229;SDS011;69540;42.136;24.742;2023-05-31T00:34:00;2.10;;;2.00;;
80229;SDS011;69540;42.136;24.742;2023-05-31T00:36:25;2.13;;;2.03;;
80229;SDS011;69540;42.136;24.742;2023-05-31T00:38:51;2.03;;;1.92;;
80229;SDS011;69540;42.136;24.742;2023-05-31T00:41:17;1.98;;;1.88;;
80229;SDS011;69540;42.136;24.742;2023-05-31T00:43:42;1.80;;;1.70;;
80229;SDS011;69540;42.136;24.742;2023-05-31T00:46:09;2.00;;;1.90;;
80229;SDS011;69540;42.136;24.742;2023-05-31T00:48:45;1.90;;;1.80;;
80229;SDS011;69540;42.136;24.742;2023-05-31T00:51:11;1.73;;;1.63;;
80229;SDS011;69540;42.136;24.742;2023-05-31T00:53:37;2.10;;;2.00;;
80229;SDS011;69540;42.136;24.742;2023-05-31T00:56:03;1.95;;;1.85;;
80229;SDS011;69540;42.136;24.742;2023-05-31T00:58:29;1.85;;;1.75;;
80229;SDS011;69540;42.136;24.742;2023-05-31T01:00:59;1.95;;;1.85;;
80229;SDS011;69540;42.136;24.742;2023-05-31T01:03:25;1.80;;;1.70;;
80229;SDS011;69540;42.136;24.742;2023-05-31T01:05:51;1.70;;;1.60;;
80229;SDS011;69540;42.136;24.742;2023-05-31T01:08:17;2.10;;;2.00;;
80229;SDS011;69540;42.136;24.742;2023-05-31T01:10:44;2.08;;;1.77;;
80229;SDS011;69540;42.136;24.742;2023-05-31T01:13:20;1.77;;;1.67;;
80229;SDS011;69540;42.136;24.742;2023-05-31T01:16:03;2.20;;;2.00;;
80229;SDS011;69540;42.136;24.742;2023-05-31T01:18:40;1.90;;;1.80;;
80229;SDS011;69540;42.136;24.742;2023-05-31T01:21:14;1.90;;;1.80;;
80229;SDS011;69540;42.136;24.742;2023-05-31T01:23:59;2.08;;;1.98;;
80229;SDS011;69540;42.136;24.742;2023-05-31T01:26:51;2.15;;;2.05;;
80229;SDS011;69540;42.136;24.742;2023-05-31T01:29:23;2.10;;;2.00;;
80229;SDS011;69540;42.136;24.742;2023-05-31T01:31:51;1.80;;;1.70;;
80229;SDS011;69540;42.136;24.742;2023-05-31T01:34:19;2.13;;;1.52;;
80229;SDS011;69540;42.136;24.742;2023-05-31T01:36:44;2.28;;;2.17;;
80229;SDS011;69540;42.136;24.742;2023-05-31T01:39:10;1.80;;;1.70;;
80229;SDS011;69540;42.136;24.742;2023-05-31T01:41:40;2.08;;;1.95;;
80229;SDS011;69540;42.136;24.742;2023-05-31T01:44:07;2.10;;;2.00;;
80229;SDS011;69540;42.136;24.742;2023-05-31T01:46:34;2.17;;;2.08;;
80229;SDS011;69540;42.136;24.742;2023-05-31T01:49:00;1.80;;;1.70;;
80229;SDS011;69540;42.136;24.742;2023-05-31T01:51:27;2.05;;;1.95;;
80229;SDS011;69540;42.136;24.742;2023-05-31T01:53:55;2.15;;;2.05;;
80229;SDS011;69540;42.136;24.742;2023-05-31T01:56:21;2.20;;;1.90;;
80229;SDS011;69540;42.136;24.742;2023-05-31T01:58:49;2.20;;;2.10;;
80229;SDS011;69540;42.136;24.742;2023-05-31T02:01:17;2.17;;;2.08;;
80229;SDS011;69540;42.136;24.742;2023-05-31T02:03:44;2.08;;;1.98;;
80229;SDS011;69540;42.136;24.742;2023-05-31T02:06:09;2.00;;;1.90;;
80229;SDS011;69540;42.136;24.742;2023-05-31T02:08:39;1.98;;;1.88;;
80229;SDS011;69540;42.136;24.742;2023-05-31T02:11:07;2.10;;;2.00;;
80229;SDS011;69540;42.136;24.742;2023-05-31T02:13:33;2.00;;;1.90;;
80229;SDS011;69540;42.136;24.742;2023-05-31T02:16:00;2.00;;;1.90;;
80229;SDS011;69540;42.136;24.742;2023-05-31T02:18:26;1.80;;;1.70;;
80229;SDS011;69540;42.136;24.742;2023-05-31T02:20:53;2.20;;;2.10;;
80229;SDS011;69540;42.136;24.742;2023-05-31T02:23:19;2.30;;;2.20;;
80229;SDS011;69540;42.136;24.742;2023-05-31T02:25:46;2.13;;;2.03;;
80229;SDS011;69540;42.136;24.742;2023-05-31T02:28:13;2.10;;;2.00;;
80229;SDS011;69540;42.136;24.742;2023-05-31T02:30:39;1.92;;;1.83;;
80229;SDS011;69540;42.136;24.742;2023-05-31T02:33:05;2.03;;;1.92;;
80229;SDS011;69540;42.136;24.742;2023-05-31T02:35:32;1.98;;;1.88;;
80229;SDS011;69540;42.136;24.742;2023-05-31T02:37:58;2.20;;;2.08;;
80229;SDS011;69540;42.136;24.742;2023-05-31T02:40:24;2.10;;;2.00;;
80229;SDS011;69540;42.136;24.742;2023-05-31T02:42:49;2.42;;;2.13;;
80229;SDS011;69540;42.136;24.742;2023-05-31T02:45:15;2.10;;;2.00;;
80229;SDS011;69540;42.136;24.742;2023-05-31T02:47:41;2.42;;;2.22;;
80229;SDS011;69540;42.136;24.742;2023-05-31T02:50:07;2.40;;;2.20;;
80229;SDS011;69540;42.136;24.742;2023-05-31T02:52:35;2.25;;;2.15;;
80229;SDS011;69540;42.136;24.742;2023-05-31T02:55:01;1.90;;;1.80;;
80229;SDS011;69540;42.136;24.742;2023-05-31T02:57:27;2.20;;;2.10;;
80229;SDS011;69540;42.136;24.742;2023-05-31T02:59:57;2.20;;;2.10;;
80229;SDS011;69540;42.136;24.742;2023-05-31T03:02:25;2.00;;;1.90;;
80229;SDS011;69540;42.136;24.742;2023-05-31T03:04:51;1.83;;;1.73;;
80229;SDS011;69540;42.136;24.742;2023-05-31T03:07:16;2.20;;;2.10;;
80229;SDS011;69540;42.136;24.742;2023-05-31T03:09:42;1.88;;;1.77;;
80229;SDS011;69540;42.136;24.742;2023-05-31T03:12:08;1.90;;;1.80;;
80229;SDS011;69540;42.136;24.742;2023-05-31T03:14:35;2.33;;;2.22;;
80229;SDS011;69540;42.136;24.742;2023-05-31T03:17:00;2.03;;;1.92;;
80229;SDS011;69540;42.136;24.742;2023-05-31T03:19:26;2.03;;;1.92;;
80229;SDS011;69540;42.136;24.742;2023-05-31T03:21:52;2.10;;;2.00;;
80229;SDS011;69540;42.136;24.742;2023-05-31T03:24:18;2.10;;;2.00;;
80229;SDS011;69540;42.136;24.742;2023-05-31T03:26:44;1.88;;;1.77;;
80229;SDS011;69540;42.136;24.742;2023-05-31T03:29:10;2.00;;;1.90;;
80229;SDS011;69540;42.136;24.742;2023-05-31T03:31:35;2.15;;;2.05;;
80229;SDS011;69540;42.136;24.742;2023-05-31T03:34:01;2.00;;;1.90;;
80229;SDS011;69540;42.136;24.742;2023-05-31T03:36:27;1.98;;;1.88;;
80229;SDS011;69540;42.136;24.742;2023-05-31T03:38:53;2.20;;;2.10;;
80229;SDS011;69540;42.136;24.742;2023-05-31T03:41:18;2.30;;;2.10;;
80229;SDS011;69540;42.136;24.742;2023-05-31T03:43:44;1.90;;;1.80;;
80229;SDS011;69540;42.136;24.742;2023-05-31T03:46:10;2.30;;;2.10;;
80229;SDS011;69540;42.136;24.742;2023-05-31T03:48:35;3.17;;;2.90;;
80229;SDS011;69540;42.136;24.742;2023-05-31T03:51:01;4.43;;;3.90;;
80229;SDS011;69540;42.136;24.742;2023-05-31T03:53:27;3.97;;;3.58;;
80229;SDS011;69540;42.136;24.742;2023-05-31T03:55:53;3.70;;;3.40;;
80229;SDS011;69540;42.136;24.742;2023-05-31T03:58:19;4.10;;;3.70;;
80229;SDS011;69540;42.136;24.742;2023-05-31T04:00:45;3.90;;;3.50;;
80229;SDS011;69540;42.136;24.742;2023-05-31T04:03:11;4.03;;;3.50;;
80229;SDS011;69540;42.136;24.742;2023-05-31T04:05:38;5.07;;;3.78;;
80229;SDS011;69540;42.136;24.742;2023-05-31T04:08:04;6.30;;;3.78;;
80229;SDS011;69540;42.136;24.742;2023-05-31T04:10:30;4.45;;;4.00;;
80229;SDS011;69540;42.136;24.742;2023-05-31T04:12:56;4.00;;;3.55;;
80229;SDS011;69540;42.136;24.742;2023-05-31T04:15:22;4.10;;;3.63;;
80229;SDS011;69540;42.136;24.742;2023-05-31T04:17:47;4.35;;;3.95;;
80229;SDS011;69540;42.136;24.742;2023-05-31T04:20:13;6.72;;;4.30;;
80229;SDS011;69540;42.136;24.742;2023-05-31T04:22:39;3.92;;;3.63;;
80229;SDS011;69540;42.136;24.742;2023-05-31T04:25:04;7.38;;;3.78;;
80229;SDS011;69540;42.136;24.742;2023-05-31T04:27:30;5.50;;;4.05;;
80229;SDS011;69540;42.136;24.742;2023-05-31T04:29:57;4.57;;;4.05;;
80229;SDS011;69540;42.136;24.742;2023-05-31T04:32:23;6.07;;;4.28;;
80229;SDS011;69540;42.136;24.742;2023-05-31T04:34:49;6.50;;;4.38;;
80229;SDS011;69540;42.136;24.742;2023-05-31T04:37:25;4.65;;;4.25;;
80229;SDS011;69540;42.136;24.742;2023-05-31T04:39:53;4.55;;;4.15;;
80229;SDS011;69540;42.136;24.742;2023-05-31T04:42:19;5.43;;;3.85;;
80229;SDS011;69540;42.136;24.742;2023-05-31T04:44:45;4.78;;;4.00;;
80229;SDS011;69540;42.136;24.742;2023-05-31T04:47:12;5.38;;;3.80;;
80229;SDS011;69540;42.136;24.742;2023-05-31T04:49:40;4.68;;;4.20;;
80229;SDS011;69540;42.136;24.742;2023-05-31T04:52:06;5.15;;;4.13;;
80229;SDS011;69540;42.136;24.742;2023-05-31T04:54:33;7.78;;;4.60;;
80229;SDS011;69540;42.136;24.742;2023-05-31T04:56:59;4.63;;;4.22;;
80229;SDS011;69540;42.136;24.742;2023-05-31T04:59:25;4.75;;;4.20;;
80229;SDS011;69540;42.136;24.742;2023-05-31T05:01:51;4.80;;;4.30;;
80229;SDS011;69540;42.136;24.742;2023-05-31T05:04:17;5.13;;;3.92;;
80229;SDS011;69540;42.136;24.742;2023-05-31T05:06:42;7.07;;;4.10;;
80229;SDS011;69540;42.136;24.742;2023-05-31T05:09:08;4.40;;;3.97;;
80229;SDS011;69540;42.136;24.742;2023-05-31T05:11:34;5.75;;;4.00;;
80229;SDS011;69540;42.136;24.742;2023-05-31T05:14:00;4.93;;;4.20;;
80229;SDS011;69540;42.136;24.742;2023-05-31T05:16:25;4.22;;;3.83;;
80229;SDS011;69540;42.136;24.742;2023-05-31T05:18:51;3.50;;;3.30;;
80229;SDS011;69540;42.136;24.742;2023-05-31T05:21:17;4.88;;;4.10;;
80229;SDS011;69540;42.136;24.742;2023-05-31T05:23:42;3.67;;;3.33;;
80229;SDS011;69540;42.136;24.742;2023-05-31T05:26:09;4.28;;;3.42;;
80229;SDS011;69540;42.136;24.742;2023-05-31T05:28:35;4.40;;;4.00;;
80229;SDS011;69540;42.136;24.742;2023-05-31T05:31:01;4.70;;;3.78;;
80229;SDS011;69540;42.136;24.742;2023-05-31T05:33:28;3.88;;;3.55;;
80229;SDS011;69540;42.136;24.742;2023-05-31T05:35:54;4.03;;;3.63;;
80229;SDS011;69540;42.136;24.742;2023-05-31T05:38:21;3.83;;;3.53;;
80229;SDS011;69540;42.136;24.742;2023-05-31T05:40:46;4.00;;;3.65;;
80229;SDS011;69540;42.136;24.742;2023-05-31T05:43:12;3.75;;;3.40;;
80229;SDS011;69540;42.136;24.742;2023-05-31T05:45:38;4.47;;;4.07;;
80229;SDS011;69540;42.136;24.742;2023-05-31T05:48:04;4.80;;;3.78;;
80229;SDS011;69540;42.136;24.742;2023-05-31T05:50:29;4.93;;;3.58;;
80229;SDS011;69540;42.136;24.742;2023-05-31T05:52:55;4.10;;;3.70;;
80229;SDS011;69540;42.136;24.742;2023-05-31T05:55:20;5.43;;;3.92;;
80229;SDS011;69540;42.136;24.742;2023-05-31T05:57:47;4.32;;;3.88;;
80229;SDS011;69540;42.136;24.742;2023-05-31T06:00:12;4.20;;;3.80;;
80229;SDS011;69540;42.136;24.742;2023-05-31T06:02:40;4.78;;;3.75;;
80229;SDS011;69540;42.136;24.742;2023-05-31T06:05:06;4.88;;;3.65;;
80229;SDS011;69540;42.136;24.742;2023-05-31T06:07:32;4.43;;;3.65;;
80229;SDS011;69540;42.136;24.742;2023-05-31T06:09:58;4.10;;;3.80;;
80229;SDS011;69540;42.136;24.742;2023-05-31T06:12:25;4.22;;;3.83;;
80229;SDS011;69540;42.136;24.742;2023-05-31T06:14:51;3.80;;;3.50;;
80229;SDS011;69540;42.136;24.742;2023-05-31T06:17:16;3.75;;;3.45;;
80229;SDS011;69540;42.136;24.742;2023-05-31T06:19:42;4.38;;;3.85;;
80229;SDS011;69540;42.136;24.742;2023-05-31T06:22:08;5.55;;;3.92;;
80229;SDS011;69540;42.136;24.742;2023-05-31T06:24:33;4.13;;;3.53;;
80229;SDS011;69540;42.136;24.742;2023-05-31T06:26:59;4.20;;;3.80;;
80229;SDS011;69540;42.136;24.742;2023-05-31T06:29:27;4.30;;;3.90;;
80229;SDS011;69540;42.136;24.742;2023-05-31T06:31:52;5.22;;;3.63;;
80229;SDS011;69540;42.136;24.742;2023-05-31T06:34:18;4.45;;;3.72;;
80229;SDS011;69540;42.136;24.742;2023-05-31T06:36:44;3.88;;;3.33;;
80229;SDS011;69540;42.136;24.742;2023-05-31T06:39:10;3.97;;;3.58;;
80229;SDS011;69540;42.136;24.742;2023-05-31T06:41:36;4.05;;;3.65;;
80229;SDS011;69540;42.136;24.742;2023-05-31T06:44:02;4.28;;;3.88;;
80229;SDS011;69540;42.136;24.742;2023-05-31T06:46:28;4.28;;;3.60;;
80229;SDS011;69540;42.136;24.742;2023-05-31T06:48:54;3.78;;;3.47;;
80229;SDS011;69540;42.136;24.742;2023-05-31T06:51:20;3.88;;;3.58;;
80229;SDS011;69540;42.136;24.742;2023-05-31T06:53:47;3.88;;;3.58;;
80229;SDS011;69540;42.136;24.742;2023-05-31T06:56:13;3.60;;;3.30;;
80229;SDS011;69540;42.136;24.742;2023-05-31T06:58:40;4.82;;;3.60;;
80229;SDS011;69540;42.136;24.742;2023-05-31T07:01:07;4.20;;;3.60;;
80229;SDS011;69540;42.136;24.742;2023-05-31T07:03:32;3.72;;;3.28;;
80229;SDS011;69540;42.136;24.742;2023-05-31T07:05:58;3.63;;;3.22;;
80229;SDS011;69540;42.136;24.742;2023-05-31T07:08:23;5.60;;;3.53;;
80229;SDS011;69540;42.136;24.742;2023-05-31T07:10:49;3.75;;;3.08;;
80229;SDS011;69540;42.136;24.742;2023-05-31T07:13:15;5.00;;;3.50;;
80229;SDS011;69540;42.136;24.742;2023-05-31T07:15:40;3.50;;;3.20;;
80229;SDS011;69540;42.136;24.742;2023-05-31T07:18:06;3.20;;;2.90;;
80229;SDS011;69540;42.136;24.742;2023-05-31T07:20:32;3.40;;;3.10;;
80229;SDS011;69540;42.136;24.742;2023-05-31T07:22:58;5.30;;;3.10;;
80229;SDS011;69540;42.136;24.742;2023-05-31T07:25:23;3.90;;;3.42;;
80229;SDS011;69540;42.136;24.742;2023-05-31T07:27:49;3.50;;;3.20;;
80229;SDS011;69540;42.136;24.742;2023-05-31T07:30:15;2.95;;;2.75;;
80229;SDS011;69540;42.136;24.742;2023-05-31T07:32:40;3.35;;;3.03;;
80229;SDS011;69540;42.136;24.742;2023-05-31T07:35:06;4.53;;;3.42;;
80229;SDS011;69540;42.136;24.742;2023-05-31T07:37:32;3.40;;;3.10;;
80229;SDS011;69540;42.136;24.742;2023-05-31T07:39:58;4.63;;;3.58;;
80229;SDS011;69540;42.136;24.742;2023-05-31T07:42:24;3.50;;;3.15;;
80229;SDS011;69540;42.136;24.742;2023-05-31T07:44:50;3.33;;;3.00;;
80229;SDS011;69540;42.136;24.742;2023-05-31T07:47:16;3.40;;;3.10;;
80229;SDS011;69540;42.136;24.742;2023-05-31T07:49:42;3.42;;;3.13;;
80229;SDS011;69540;42.136;24.742;2023-05-31T07:52:07;3.38;;;3.08;;
80229;SDS011;69540;42.136;24.742;2023-05-31T07:54:33;3.53;;;3.17;;
80229;SDS011;69540;42.136;24.742;2023-05-31T07:56:59;3.22;;;2.90;;
80229;SDS011;69540;42.136;24.742;2023-05-31T07:59:25;3.22;;;3.03;;
80229;SDS011;69540;42.136;24.742;2023-05-31T08:01:51;4.03;;;3.15;;
80229;SDS011;69540;42.136;24.742;2023-05-31T08:04:17;3.60;;;3.30;;
80229;SDS011;69540;42.136;24.742;2023-05-31T08:06:43;3.40;;;3.10;;
80229;SDS011;69540;42.136;24.742;2023-05-31T08:09:08;3.20;;;2.97;;
80229;SDS011;69540;42.136;24.742;2023-05-31T08:11:34;3.83;;;3.30;;
80229;SDS011;69540;42.136;24.742;2023-05-31T08:14:03;3.35;;;3.00;;
80229;SDS011;69540;42.136;24.742;2023-05-31T08:16:30;3.47;;;3.10;;
80229;SDS011;69540;42.136;24.742;2023-05-31T08:18:56;3.47;;;3.17;;
80229;SDS011;69540;42.136;24.742;2023-05-31T08:21:22;3.70;;;3.22;;
80229;SDS011;69540;42.136;24.742;2023-05-31T08:23:48;3.40;;;3.10;;
80229;SDS011;69540;42.136;24.742;2023-05-31T08:26:14;3.13;;;2.92;;
80229;SDS011;69540;42.136;24.742;2023-05-31T08:28:39;3.50;;;3.20;;
80229;SDS011;69540;42.136;24.742;2023-05-31T08:31:05;3.50;;;3.20;;
80229;SDS011;69540;42.136;24.742;2023-05-31T08:33:32;3.40;;;3.10;;
80229;SDS011;69540;42.136;24.742;2023-05-31T08:36:01;3.50;;;3.00;;
80229;SDS011;69540;42.136;24.742;2023-05-31T08:38:29;3.47;;;3.17;;
80229;SDS011;69540;42.136;24.742;2023-05-31T08:40:56;3.70;;;3.40;;
80229;SDS011;69540;42.136;24.742;2023-05-31T08:43:25;3.50;;;3.20;;
80229;SDS011;69540;42.136;24.742;2023-05-31T08:45:52;3.85;;;3.33;;
80229;SDS011;69540;42.136;24.742;2023-05-31T08:50:56;3.35;;;3.08;;
80229;SDS011;69540;42.136;24.742;2023-05-31T08:53:26;3.38;;;3.03;;
80229;SDS011;69540;42.136;24.742;2023-05-31T08:55:52;3.22;;;2.92;;
80229;SDS011;69540;42.136;24.742;2023-05-31T08:58:19;3.53;;;3.00;;
80229;SDS011;69540;42.136;24.742;2023-05-31T09:00:45;3.35;;;3.10;;
80229;SDS011;69540;42.136;24.742;2023-05-31T09:03:11;3.60;;;3.15;;
80229;SDS011;69540;42.136;24.742;2023-05-31T09:05:37;3.00;;;2.80;;
80229;SDS011;69540;42.136;24.742;2023-05-31T09:08:03;3.10;;;2.80;;
80229;SDS011;69540;42.136;24.742;2023-05-31T09:10:29;2.90;;;2.70;;
80229;SDS011;69540;42.136;24.742;2023-05-31T09:12:55;3.35;;;3.05;;
80229;SDS011;69540;42.136;24.742;2023-05-31T09:15:22;2.85;;;2.60;;
80229;SDS011;69540;42.136;24.742;2023-05-31T09:17:49;3.42;;;3.10;;
80229;SDS011;69540;42.136;24.742;2023-05-31T09:20:15;3.08;;;2.88;;
80229;SDS011;69540;42.136;24.742;2023-05-31T09:22:47;3.25;;;2.88;;
80229;SDS011;69540;42.136;24.742;2023-05-31T09:25:14;3.42;;;3.13;;
80229;SDS011;69540;42.136;24.742;2023-05-31T09:27:40;3.80;;;3.28;;
80229;SDS011;69540;42.136;24.742;2023-05-31T09:32:35;3.10;;;2.90;;
80229;SDS011;69540;42.136;24.742;2023-05-31T09:35:11;2.90;;;2.70;;
80229;SDS011;69540;42.136;24.742;2023-05-31T09:37:48;3.60;;;2.78;;
80229;SDS011;69540;42.136;24.742;2023-05-31T09:40:14;3.00;;;2.80;;
80229;SDS011;69540;42.136;24.742;2023-05-31T09:42:51;3.38;;;2.92;;
80229;SDS011;69540;42.136;24.742;2023-05-31T09:45:18;2.97;;;2.72;;
80229;SDS011;69540;42.136;24.742;2023-05-31T09:47:45;3.40;;;3.10;;
80229;SDS011;69540;42.136;24.742;2023-05-31T09:50:15;3.10;;;2.90;;
80229;SDS011;69540;42.136;24.742;2023-05-31T09:52:45;3.10;;;2.90;;
80229;SDS011;69540;42.136;24.742;2023-05-31T09:55:13;3.22;;;2.97;;
80229;SDS011;69540;42.136;24.742;2023-05-31T09:57:40;3.58;;;3.28;;
80229;SDS011;69540;42.136;24.742;2023-05-31T10:00:09;3.00;;;2.80;;
80229;SDS011;69540;42.136;24.742;2023-05-31T10:02:46;3.15;;;2.95;;
80229;SDS011;69540;42.136;24.742;2023-05-31T10:05:16;3.17;;;2.85;;
80229;SDS011;69540;42.136;24.742;2023-05-31T10:07:52;3.33;;;3.00;;
80229;SDS011;69540;42.136;24.742;2023-05-31T10:10:18;3.30;;;3.00;;
80229;SDS011;69540;42.136;24.742;2023-05-31T10:12:50;3.35;;;3.03;;
80229;SDS011;69540;42.136;24.742;2023-05-31T10:15:22;3.40;;;3.10;;
80229;SDS011;69540;42.136;24.742;2023-05-31T10:20:49;3.78;;;3.00;;
80229;SDS011;69540;42.136;24.742;2023-05-31T10:23:19;3.30;;;3.00;;
80229;SDS011;69540;42.136;24.742;2023-05-31T10:25:48;3.33;;;3.13;;
80229;SDS011;69540;42.136;24.742;2023-05-31T10:28:22;3.30;;;2.97;;
80229;SDS011;69540;42.136;24.742;2023-05-31T10:30:52;3.40;;;3.10;;
80229;SDS011;69540;42.136;24.742;2023-05-31T10:33:20;3.78;;;3.20;;
80229;SDS011;69540;42.136;24.742;2023-05-31T10:35:46;3.22;;;3.00;;
80229;SDS011;69540;42.136;24.742;2023-05-31T10:38:12;3.50;;;3.20;;
80229;SDS011;69540;42.136;24.742;2023-05-31T10:40:41;3.40;;;3.10;;
80229;SDS011;69540;42.136;24.742;2023-05-31T10:46:03;3.78;;;3.20;;
80229;SDS011;69540;42.136;24.742;2023-05-31T10:48:39;3.30;;;3.05;;
80229;SDS011;69540;42.136;24.742;2023-05-31T10:53:43;3.47;;;3.17;;
80229;SDS011;69540;42.136;24.742;2023-05-31T10:56:13;3.70;;;3.40;;
80229;SDS011;69540;42.136;24.742;2023-05-31T10:58:43;3.60;;;3.30;;
80229;SDS011;69540;42.136;24.742;2023-05-31T11:01:13;4.00;;;3.60;;
80229;SDS011;69540;42.136;24.742;2023-05-31T11:06:16;3.45;;;3.20;;
80229;SDS011;69540;42.136;24.742;2023-05-31T11:09:09;4.20;;;3.90;;
80229;SDS011;69540;42.136;24.742;2023-05-31T11:14:04;4.13;;;3.35;;
80229;SDS011;69540;42.136;24.742;2023-05-31T11:19:14;4.35;;;3.42;;
80229;SDS011;69540;42.136;24.742;2023-05-31T11:24:29;3.80;;;3.47;;
80229;SDS011;69540;42.136;24.742;2023-05-31T11:26:59;3.33;;;3.10;;
80229;SDS011;69540;42.136;24.742;2023-05-31T11:32:13;3.33;;;3.03;;
80229;SDS011;69540;42.136;24.742;2023-05-31T11:37:21;3.80;;;3.50;;
80229;SDS011;69540;42.136;24.742;2023-05-31T11:40:00;3.55;;;3.17;;
80229;SDS011;69540;42.136;24.742;2023-05-31T11:42:31;4.00;;;3.60;;
80229;SDS011;69540;42.136;24.742;2023-05-31T11:45:05;3.67;;;3.30;;
80229;SDS011;69540;42.136;24.742;2023-05-31T11:47:33;3.72;;;3.35;;
80229;SDS011;69540;42.136;24.742;2023-05-31T11:50:14;4.03;;;3.58;;
80229;SDS011;69540;42.136;24.742;2023-05-31T11:52:43;3.65;;;3.35;;
80229;SDS011;69540;42.136;24.742;2023-05-31T11:55:09;3.50;;;3.20;;
80229;SDS011;69540;42.136;24.742;2023-05-31T11:57:40;3.45;;;3.15;;
80229;SDS011;69540;42.136;24.742;2023-05-31T12:00:17;3.80;;;3.50;;
80229;SDS011;69540;42.136;24.742;2023-05-31T12:02:45;3.50;;;3.30;;
80229;SDS011;69540;42.136;24.742;2023-05-31T12:05:21;3.83;;;3.53;;
80229;SDS011;69540;42.136;24.742;2023-05-31T12:07:47;4.28;;;3.28;;
80229;SDS011;69540;42.136;24.742;2023-05-31T12:10:17;3.63;;;3.33;;
80229;SDS011;69540;42.136;24.742;2023-05-31T12:12:42;3.60;;;3.30;;
80229;SDS011;69540;42.136;24.742;2023-05-31T12:15:11;3.83;;;3.53;;
80229;SDS011;69540;42.136;24.742;2023-05-31T12:17:40;3.67;;;3.38;;
80229;SDS011;69540;42.136;24.742;2023-05-31T12:20:06;3.92;;;3.63;;
80229;SDS011;69540;42.136;24.742;2023-05-31T12:22:32;3.78;;;3.47;;
80229;SDS011;69540;42.136;24.742;2023-05-31T12:24:58;3.50;;;3.20;;
80229;SDS011;69540;42.136;24.742;2023-05-31T12:27:27;3.60;;;3.30;;
80229;SDS011;69540;42.136;24.742;2023-05-31T12:29:55;4.38;;;3.90;;
80229;SDS011;69540;42.136;24.742;2023-05-31T12:32:25;3.60;;;3.30;;
80229;SDS011;69540;42.136;24.742;2023-05-31T12:35:03;3.60;;;3.40;;
80229;SDS011;69540;42.136;24.742;2023-05-31T12:37:34;3.58;;;3.28;;
80229;SDS011;69540;42.136;24.742;2023-05-31T12:40:07;4.00;;;3.70;;
80229;SDS011;69540;42.136;24.742;2023-05-31T12:42:34;3.80;;;3.50;;
80229;SDS011;69540;42.136;24.742;2023-05-31T12:45:02;4.88;;;3.50;;
80229;SDS011;69540;42.136;24.742;2023-05-31T12:47:35;3.60;;;3.30;;
80229;SDS011;69540;42.136;24.742;2023-05-31T12:50:04;3.80;;;3.50;;
80229;SDS011;69540;42.136;24.742;2023-05-31T12:52:32;3.75;;;3.45;;
80229;SDS011;69540;42.136;24.742;2023-05-31T12:54:59;3.65;;;3.33;;
80229;SDS011;69540;42.136;24.742;2023-05-31T12:57:26;3.80;;;3.50;;
80229;SDS011;69540;42.136;24.742;2023-05-31T12:59:58;3.65;;;3.35;;
80229;SDS011;69540;42.136;24.742;2023-05-31T13:05:00;7.13;;;6.53;;
80229;SDS011;69540;42.136;24.742;2023-05-31T13:07:26;14.93;;;13.63;;
80229;SDS011;69540;42.136;24.742;2023-05-31T13:09:52;14.23;;;12.93;;
80229;SDS011;69540;42.136;24.742;2023-05-31T13:12:18;12.45;;;11.35;;
80229;SDS011;69540;42.136;24.742;2023-05-31T13:14:46;11.77;;;10.70;;
80229;SDS011;69540;42.136;24.742;2023-05-31T13:17:12;10.00;;;9.20;;
80229;SDS011;69540;42.136;24.742;2023-05-31T13:19:38;9.40;;;8.60;;
80229;SDS011;69540;42.136;24.742;2023-05-31T13:22:04;8.43;;;7.72;;
80229;SDS011;69540;42.136;24.742;2023-05-31T13:24:29;8.10;;;7.50;;
80229;SDS011;69540;42.136;24.742;2023-05-31T13:26:55;8.20;;;7.43;;
80229;SDS011;69540;42.136;24.742;2023-05-31T13:29:21;7.65;;;6.95;;
80229;SDS011;69540;42.136;24.742;2023-05-31T13:31:48;7.50;;;6.90;;
80229;SDS011;69540;42.136;24.742;2023-05-31T13:34:14;6.95;;;6.28;;
80229;SDS011;69540;42.136;24.742;2023-05-31T13:36:40;7.35;;;6.70;;
80229;SDS011;69540;42.136;24.742;2023-05-31T13:39:06;6.97;;;6.38;;
80229;SDS011;69540;42.136;24.742;2023-05-31T13:41:32;7.28;;;6.57;;
80229;SDS011;69540;42.136;24.742;2023-05-31T13:43:58;8.25;;;6.80;;
80229;SDS011;69540;42.136;24.742;2023-05-31T13:46:24;6.70;;;6.05;;
80229;SDS011;69540;42.136;24.742;2023-05-31T13:48:51;7.15;;;5.47;;
80229;SDS011;69540;42.136;24.742;2023-05-31T13:51:17;6.18;;;5.57;;
80229;SDS011;69540;42.136;24.742;2023-05-31T13:53:43;5.97;;;5.30;;
80229;SDS011;69540;42.136;24.742;2023-05-31T13:56:09;5.82;;;5.32;;
80229;SDS011;69540;42.136;24.742;2023-05-31T13:58:36;6.15;;;5.55;;
80229;SDS011;69540;42.136;24.742;2023-05-31T14:01:05;6.38;;;5.28;;
80229;SDS011;69540;42.136;24.742;2023-05-31T14:03:35;5.80;;;5.20;;
80229;SDS011;69540;42.136;24.742;2023-05-31T14:06:01;5.75;;;5.15;;
80229;SDS011;69540;42.136;24.742;2023-05-31T14:08:27;5.40;;;4.80;;
80229;SDS011;69540;42.136;24.742;2023-05-31T14:10:53;5.80;;;5.05;;
80229;SDS011;69540;42.136;24.742;2023-05-31T14:13:19;5.22;;;4.72;;
80229;SDS011;69540;42.136;24.742;2023-05-31T14:15:45;5.20;;;4.70;;
80229;SDS011;69540;42.136;24.742;2023-05-31T14:18:11;5.03;;;4.63;;
80229;SDS011;69540;42.136;24.742;2023-05-31T14:20:36;5.13;;;4.57;;
80229;SDS011;69540;42.136;24.742;2023-05-31T14:23:02;5.45;;;4.15;;
80229;SDS011;69540;42.136;24.742;2023-05-31T14:25:29;5.45;;;4.43;;
80229;SDS011;69540;42.136;24.742;2023-05-31T14:27:55;4.63;;;4.18;;
80229;SDS011;69540;42.136;24.742;2023-05-31T14:30:21;4.70;;;4.30;;
80229;SDS011;69540;42.136;24.742;2023-05-31T14:32:47;6.57;;;4.32;;
80229;SDS011;69540;42.136;24.742;2023-05-31T14:35:12;4.88;;;4.38;;
80229;SDS011;69540;42.136;24.742;2023-05-31T14:37:38;5.00;;;4.05;;
80229;SDS011;69540;42.136;24.742;2023-05-31T14:40:04;4.57;;;4.15;;
80229;SDS011;69540;42.136;24.742;2023-05-31T14:42:30;3.90;;;3.60;;
80229;SDS011;69540;42.136;24.742;2023-05-31T14:44:57;4.15;;;3.75;;
80229;SDS011;69540;42.136;24.742;2023-05-31T14:47:23;4.30;;;3.90;;
80229;SDS011;69540;42.136;24.742;2023-05-31T14:49:48;4.40;;;4.00;;
80229;SDS011;69540;42.136;24.742;2023-05-31T14:52:14;3.97;;;3.63;;
80229;SDS011;69540;42.136;24.742;2023-05-31T14:54:40;4.40;;;4.00;;
80229;SDS011;69540;42.136;24.742;2023-05-31T14:57:05;3.88;;;3.58;;
80229;SDS011;69540;42.136;24.742;2023-05-31T14:59:31;4.63;;;3.85;;
80229;SDS011;69540;42.136;24.742;2023-05-31T15:01:57;4.80;;;3.92;;
80229;SDS011;69540;42.136;24.742;2023-05-31T15:04:24;4.22;;;3.80;;